メインページ
METAR-TAF:

METAR-TAF

空港 :

マジュロ国際空港

マジュロ, マーシャル諸島

緯度: 07-04N, 経度: 171-17E, 海抜: 2m

現時点の気象観測

当レポートは15分前の20:54(UTC)に作成
東/北東の風 8kt
気温 29°C
湿度 84%
気圧 1011 hPa
視程: 24.1km
高度1400ftの雲は散在している
高度5000ftの千切れ雲あり
高度12000ftの千切れ雲あり
高度30000ftの曇り

METAR: PKMJ 222054Z 06008KT 15SM SCT014 BKN050 BKN120 OVC300 29/26 A2986 RMK FIRST

時間: 09:09 (21:09 UTC)

予報

当レポートは3時間49分前の17:20(UTC)に作成
予報は22日の 18時(UTC)から 23日の 18時(UTC)まで有効
の風 10kt
視程: 10km
高度1500ftの雲はほとんどない
高度5000ftの雲は散在している
23日の 0600時(UTC)から
の風 10kt
視程: 10km
高度1500ftの雲は散在している
高度5000ftの雲は散在している
高度12000ftの千切れ雲あり
近辺でにわか雨

TAF: PKMJ 221720Z 2218/2318 10010KT P6SM FEW015 SCT050 FM230600 08010KT P6SM VCSH SCT015 SCT050 BKN120

4,000以上の空港の気象観測と天気予報(METAR報とTAF報)

利用可能な観測所は地図上に黄色い丸と赤い丸で示す。

丸の上にカーソルを重ねると観測所名を参照できる。

次にクリックすると気象観測と天気予報を参照できる。

マップの切り替え:黒色「×」印の緑ボタンをクリックして拡大、「-」印の緑ボタンをクリックして縮小、緑色の三角印をクリックして隣りの地図に切り替え


METAR-TAF: